Time;durP1;ratioP1;P1;durP2;ratioP2;P2;SDS_P1;SDS_P2;PMS_P1;PMS_P2;Temp;Humidity;BMP_temperature;BMP_pressure;BME280_temperature;BME280_humidity;BME280_pressure;Samples;Min_cycle;Max_cycle;Signal;HPM_P1;HPM_P2
2022/03/15 00:00:27;;;;;;;13.02;9.45;;;;;;;6.81;78.24;102656.47;5049660;28;20087;-85
2022/03/15 00:02:54;;;;;;;13.27;9.40;;;;;;;6.81;77.51;102660.00;5049893;28;20030;-85
2022/03/15 00:05:20;;;;;;;12.90;9.25;;;;;;;6.82;76.91;102656.31;5050186;28;20084;-85
2022/03/15 00:07:47;;;;;;;13.93;10.07;;;;;;;6.81;77.25;102654.59;5033320;28;20057;-85
2022/03/15 00:10:14;;;;;;;16.55;10.63;;;;;;;6.81;77.70;102651.06;5049516;28;20029;-85
2022/03/15 00:12:40;;;;;;;13.85;10.25;;;;;;;6.81;77.22;102656.47;5016876;28;20041;-85
2022/03/15 00:15:09;;;;;;;13.10;9.20;;;;;;;6.80;77.68;102650.19;5033711;28;20029;-85
2022/03/15 00:17:40;;;;;;;13.77;9.63;;;;;;;6.75;77.79;102651.66;5050462;28;20037;-85
2022/03/15 00:20:08;;;;;;;10.70;8.52;;;;;;;6.69;77.70;102645.00;5032767;28;20071;-85
2022/03/15 00:22:36;;;;;;;11.52;9.00;;;;;;;6.67;77.70;102641.56;5049173;28;20543;-85
2022/03/15 00:25:06;;;;;;;12.07;8.93;;;;;;;6.68;78.23;102637.88;5049627;28;20040;-85
2022/03/15 00:27:33;;;;;;;13.15;8.93;;;;;;;6.67;77.89;102633.47;5049813;28;20064;-85
2022/03/15 00:29:59;;;;;;;13.38;9.38;;;;;;;6.68;78.15;102641.44;5034190;28;20063;-85
2022/03/15 00:32:25;;;;;;;13.10;9.45;;;;;;;6.67;77.28;102634.34;5016665;28;20446;-84
2022/03/15 00:34:51;;;;;;;13.18;9.52;;;;;;;6.67;78.01;102641.56;5032798;28;20034;-84
2022/03/15 00:37:16;;;;;;;12.35;9.27;;;;;;;6.67;77.83;102644.25;5049333;28;20079;-85
2022/03/15 00:39:42;;;;;;;14.00;8.93;;;;;;;6.65;78.27;102644.41;5015922;28;20076;-85
2022/03/15 00:42:08;;;;;;;13.48;9.30;;;;;;;6.67;78.13;102646.97;5049245;28;20155;-85
2022/03/15 00:44:34;;;;;;;11.68;9.13;;;;;;;6.67;77.74;102639.75;5032469;28;20466;-85
2022/03/15 00:46:59;;;;;;;11.75;8.98;;;;;;;6.70;78.01;102635.88;5049437;28;20088;-85
2022/03/15 00:49:26;;;;;;;11.07;8.70;;;;;;;6.72;77.93;102638.44;5033321;28;20461;-85
2022/03/15 00:51:55;;;;;;;13.00;8.43;;;;;;;6.71;77.09;102636.75;5032656;28;20091;-84
2022/03/15 00:54:21;;;;;;;11.55;8.35;;;;;;;6.70;77.45;102633.19;5032280;28;20178;-85
2022/03/15 00:56:47;;;;;;;11.50;7.95;;;;;;;6.68;77.80;102636.03;5032149;28;20067;-85
2022/03/15 00:59:15;;;;;;;11.30;8.07;;;;;;;6.70;77.87;102632.34;5015697;28;20029;-85
2022/03/15 01:01:41;;;;;;;11.23;7.75;;;;;;;6.71;77.82;102628.66;5033512;28;20052;-85
2022/03/15 01:04:10;;;;;;;11.05;7.93;;;;;;;6.72;78.01;102627.63;5049183;28;20057;-85
2022/03/15 01:06:37;;;;;;;10.98;7.65;;;;;;;6.70;77.97;102624.25;5032107;28;20049;-86
2022/03/15 01:09:03;;;;;;;10.60;7.10;;;;;;;6.70;78.76;102630.50;5016957;28;20043;-87
2022/03/15 01:11:29;;;;;;;9.82;7.32;;;;;;;6.67;77.90;102633.47;5048875;28;20033;-87
2022/03/15 01:13:54;;;;;;;11.57;8.00;;;;;;;6.65;77.35;102627.38;5051688;28;20033;-87
2022/03/15 01:16:20;;;;;;;10.13;7.65;;;;;;;6.64;77.04;102631.94;5036443;28;20022;-87
2022/03/15 01:18:45;;;;;;;10.38;7.55;;;;;;;6.65;77.14;102632.78;5036420;28;20030;-89
2022/03/15 01:21:13;;;;;;;11.55;7.85;;;;;;;6.65;76.47;102638.19;5036638;28;20490;-86
2022/03/15 01:23:38;;;;;;;10.80;8.02;;;;;;;6.62;77.37;102619.59;5052917;28;20034;-87
2022/03/15 01:26:03;;;;;;;11.88;8.10;;;;;;;6.64;76.44;102626.56;5036709;28;20087;-87
2022/03/15 01:28:29;;;;;;;9.10;7.40;;;;;;;6.62;76.08;102620.44;5036275;28;20454;-87
2022/03/15 01:30:55;;;;;;;11.68;8.43;;;;;;;6.64;76.44;102610.38;5037807;28;20025;-87
2022/03/15 01:33:21;;;;;;;11.15;8.10;;;;;;;6.65;76.13;102609.34;5036154;28;20037;-87
2022/03/15 01:35:49;;;;;;;10.82;8.10;;;;;;;6.67;75.69;102601.09;5037957;28;20065;-87
2022/03/15 01:38:14;;;;;;;10.30;7.57;;;;;;;6.69;76.42;102609.91;5052350;28;20037;-87
2022/03/15 01:40:40;;;;;;;10.23;7.15;;;;;;;6.68;75.84;102600.13;5052943;28;20397;-87
2022/03/15 01:43:05;;;;;;;9.48;6.93;;;;;;;6.66;75.50;102596.72;5037490;28;20554;-87
2022/03/15 01:45:35;;;;;;;9.90;7.35;;;;;;;6.67;75.68;102593.00;5037553;28;20033;-87
2022/03/15 01:48:02;;;;;;;10.43;7.10;;;;;;;6.69;75.53;102591.03;5035924;28;20417;-87
2022/03/15 01:50:29;;;;;;;9.98;6.68;;;;;;;6.67;75.47;102588.50;5052519;28;20045;-87
2022/03/15 01:52:58;;;;;;;9.07;6.85;;;;;;;6.66;75.68;102588.63;5037533;28;20093;-87
2022/03/15 01:55:23;;;;;;;8.73;6.90;;;;;;;6.68;76.10;102584.78;5036564;28;20032;-87
2022/03/15 01:57:50;;;;;;;7.38;6.07;;;;;;;6.70;76.29;102591.88;5019409;28;20116;-87
2022/03/15 02:00:17;;;;;;;8.63;6.60;;;;;;;6.71;76.74;102588.19;5035856;28;20072;-87
2022/03/15 02:02:43;;;;;;;10.50;6.93;;;;;;;6.72;75.70;102585.34;5036196;28;20117;-87
2022/03/15 02:05:09;;;;;;;10.30;7.20;;;;;;;6.71;76.55;102583.63;5035433;28;20092;-87
2022/03/15 02:07:35;;;;;;;10.77;6.85;;;;;;;6.72;75.86;102582.66;5035433;28;20061;-87
2022/03/15 02:10:02;;;;;;;9.43;6.70;;;;;;;6.72;76.19;102588.03;5035347;28;20476;-87
2022/03/15 02:12:30;;;;;;;10.15;6.90;;;;;;;6.67;75.84;102584.94;5035615;28;20045;-87
2022/03/15 02:15:02;;;;;;;8.63;6.63;;;;;;;6.65;76.22;102581.53;5035379;28;20041;-86
2022/03/15 02:17:28;;;;;;;12.10;6.38;;;;;;;6.63;75.96;102575.44;5037024;28;20484;-86
2022/03/15 02:19:57;;;;;;;10.25;7.03;;;;;;;6.67;75.85;102575.00;5035094;28;20038;-87
2022/03/15 02:22:26;;;;;;;9.30;6.93;;;;;;;6.68;74.92;102573.16;5051815;28;20029;-87
2022/03/15 02:24:52;;;;;;;9.05;6.47;;;;;;;6.68;75.03;102568.59;5051321;28;20109;-87
2022/03/15 02:27:23;;;;;;;10.52;7.22;;;;;;;6.71;75.88;102564.75;5036120;28;20030;-87
2022/03/15 02:29:51;;;;;;;11.53;7.47;;;;;;;6.70;75.31;102560.34;5019010;28;20477;-87
2022/03/15 02:32:17;;;;;;;11.32;7.40;;;;;;;6.72;75.08;102554.81;5051669;28;20364;-87
2022/03/15 02:34:43;;;;;;;11.63;7.35;;;;;;;6.73;74.71;102562.78;5034807;28;20128;-87
2022/03/15 02:37:08;;;;;;;10.15;7.32;;;;;;;6.72;75.12;102554.81;5002234;28;20371;-87
2022/03/15 02:39:35;;;;;;;8.60;6.90;;;;;;;6.71;75.03;102561.22;5035775;28;20049;-87
2022/03/15 02:42:00;;;;;;;10.07;6.95;;;;;;;6.68;75.09;102562.34;5051437;28;20039;-87
2022/03/15 02:44:26;;;;;;;9.80;7.00;;;;;;;6.67;75.08;102556.13;5051490;28;20051;-86
2022/03/15 02:46:51;;;;;;;9.52;6.50;;;;;;;6.65;75.35;102557.25;5037277;28;20060;-87
2022/03/15 02:49:17;;;;;;;9.35;6.40;;;;;;;6.63;75.04;102562.81;5054314;28;20029;-87
2022/03/15 02:51:43;;;;;;;9.63;6.50;;;;;;;6.64;75.20;102551.03;5038326;28;20025;-87
2022/03/15 02:54:13;;;;;;;9.57;6.80;;;;;;;6.63;74.78;102538.53;5055097;28;20029;-87
2022/03/15 02:56:42;;;;;;;8.93;6.55;;;;;;;6.64;75.09;102545.63;5055140;28;20059;-86
2022/03/15 02:59:14;;;;;;;8.15;6.30;;;;;;;6.63;74.98;102535.00;5021770;28;20473;-87
2022/03/15 03:01:42;;;;;;;9.18;6.45;;;;;;;6.64;75.02;102534.84;5022463;28;20033;-87
2022/03/15 03:04:08;;;;;;;7.90;6.30;;;;;;;6.64;74.88;102526.75;5054349;28;20060;-87
2022/03/15 03:06:34;;;;;;;9.80;6.72;;;;;;;6.67;74.83;102522.88;5055616;28;20037;-87
2022/03/15 03:08:59;;;;;;;7.55;6.20;;;;;;;6.66;75.25;102513.13;5037775;28;20033;-87
2022/03/15 03:11:27;;;;;;;9.57;6.30;;;;;;;6.66;74.26;102508.56;5037847;28;20476;-87
2022/03/15 03:13:55;;;;;;;9.73;6.60;;;;;;;6.65;74.65;102512.25;5055168;28;20035;-86
2022/03/15 03:16:23;;;;;;;10.48;7.00;;;;;;;6.63;74.73;102510.72;5038319;28;20024;-87
2022/03/15 03:18:48;;;;;;;7.88;6.20;;;;;;;6.62;74.29;102512.53;5054058;28;20122;-86
2022/03/15 03:21:14;;;;;;;8.48;6.78;;;;;;;6.61;74.38;102507.31;5054870;28;20064;-87
2022/03/15 03:23:39;;;;;;;9.55;6.55;;;;;;;6.58;74.44;102503.03;5038171;28;20082;-86
2022/03/15 03:26:08;;;;;;;10.77;6.80;;;;;;;6.58;74.32;102503.03;5054498;28;20461;-87
2022/03/15 03:28:37;;;;;;;9.32;6.57;;;;;;;6.58;74.54;102504.91;5037832;28;20029;-87
2022/03/15 03:31:04;;;;;;;12.25;6.50;;;;;;;6.57;74.46;102493.28;5055203;28;20029;-87
2022/03/15 03:33:30;;;;;;;10.45;6.50;;;;;;;6.58;74.34;102494.94;5055146;28;20146;-87
2022/03/15 03:35:55;;;;;;;8.80;5.82;;;;;;;6.58;74.12;102500.34;5036387;28;20120;-87
2022/03/15 03:38:21;;;;;;;8.18;6.22;;;;;;;6.61;74.42;102497.34;5053716;28;20531;-87
2022/03/15 03:40:46;;;;;;;9.05;6.13;;;;;;;6.61;73.91;102493.81;5055487;28;20029;-87
2022/03/15 03:43:12;;;;;;;7.50;5.82;;;;;;;6.61;74.05;102502.75;5053576;28;20086;-86
2022/03/15 03:45:38;;;;;;;7.63;5.93;;;;;;;6.59;74.30;102498.53;5053532;28;20021;-87
2022/03/15 03:48:07;;;;;;;10.27;6.70;;;;;;;6.62;74.36;102499.06;5055191;28;20181;-87
2022/03/15 03:50:34;;;;;;;9.50;6.43;;;;;;;6.63;73.85;102494.53;5053487;28;20037;-86
2022/03/15 03:53:00;;;;;;;9.65;6.38;;;;;;;6.63;74.01;102491.84;5054333;28;20415;-87
2022/03/15 03:55:25;;;;;;;8.68;6.38;;;;;;;6.63;74.01;102494.53;5053427;28;20025;-87
2022/03/15 03:57:51;;;;;;;7.45;5.95;;;;;;;6.62;74.27;102484.72;5053936;28;20029;-87
2022/03/15 04:00:17;;;;;;;8.57;6.38;;;;;;;6.63;74.18;102487.28;5036354;28;20476;-87
2022/03/15 04:02:43;;;;;;;11.10;6.95;;;;;;;6.65;74.00;102487.13;5053188;28;20027;-87
2022/03/15 04:05:09;;;;;;;8.68;5.82;;;;;;;6.63;74.35;102483.75;5036982;28;20029;-87
2022/03/15 04:07:39;;;;;;;8.48;5.90;;;;;;;6.63;74.29;102489.97;5036270;28;20027;-87
2022/03/15 04:10:06;;;;;;;7.80;5.93;;;;;;;6.61;74.70;102491.97;5052942;28;20053;-87
2022/03/15 04:12:32;;;;;;;8.32;5.85;;;;;;;6.63;74.35;102489.97;5054951;28;20032;-87
2022/03/15 04:14:58;;;;;;;7.18;5.60;;;;;;;6.62;74.62;102501.75;5036428;28;20029;-87
2022/03/15 04:17:24;;;;;;;9.23;6.40;;;;;;;6.63;74.84;102499.94;5053590;28;20044;-87
2022/03/15 04:19:50;;;;;;;8.18;6.18;;;;;;;6.61;74.41;102497.34;5053150;28;20358;-87
2022/03/15 04:22:15;;;;;;;9.07;6.00;;;;;;;6.60;74.21;102495.69;5036818;28;20139;-87
2022/03/15 04:24:41;;;;;;;9.63;6.25;;;;;;;6.62;74.44;102499.06;5052582;28;20111;-87
2022/03/15 04:27:06;;;;;;;9.60;6.55;;;;;;;6.61;74.48;102502.75;5019783;28;20037;-87
2022/03/15 04:29:32;;;;;;;9.25;6.07;;;;;;;6.63;74.11;102503.47;5053072;28;20041;-86
2022/03/15 04:31:58;;;;;;;7.75;5.90;;;;;;;6.58;73.86;102497.66;5036150;28;20388;-87
2022/03/15 04:34:25;;;;;;;9.18;6.25;;;;;;;6.58;74.36;102496.81;5036201;28;20459;-87
2022/03/15 04:36:51;;;;;;;9.93;6.68;;;;;;;6.58;73.74;102500.34;5036373;28;20070;-87
2022/03/15 04:39:16;;;;;;;10.13;6.20;;;;;;;6.56;74.44;102505.06;5036059;28;20481;-87
2022/03/15 04:41:41;;;;;;;9.68;6.18;;;;;;;6.53;74.22;102505.34;5036013;28;20025;-87
2022/03/15 04:44:09;;;;;;;9.05;6.25;;;;;;;6.52;73.98;102494.72;5052242;28;20074;-87
2022/03/15 04:46:35;;;;;;;9.15;6.10;;;;;;;6.48;74.26;102486.06;5036086;28;20037;-87
2022/03/15 04:49:00;;;;;;;7.38;5.63;;;;;;;6.48;74.59;102486.06;5052214;28;20032;-88
2022/03/15 04:51:26;;;;;;;9.00;5.97;;;;;;;6.46;74.63;102486.19;5052507;28;20437;-87
2022/03/15 04:53:53;;;;;;;10.63;6.45;;;;;;;6.47;74.84;102478.97;5053414;28;20458;-87
2022/03/15 04:56:18;;;;;;;8.75;6.00;;;;;;;6.49;74.35;102488.59;5053409;28;20519;-87
2022/03/15 04:58:44;;;;;;;8.52;6.13;;;;;;;6.49;74.38;102482.38;5052690;28;20033;-87
2022/03/15 05:01:10;;;;;;;8.68;5.75;;;;;;;6.47;74.82;102477.13;5052587;28;20499;-87
2022/03/15 05:03:36;;;;;;;8.38;5.28;;;;;;;6.48;74.48;102476.13;5052063;28;20423;-87
2022/03/15 05:06:02;;;;;;;7.57;5.78;;;;;;;6.48;74.55;102477.97;5052304;28;20029;-87
2022/03/15 05:08:31;;;;;;;8.02;5.90;;;;;;;6.48;74.67;102472.56;5052331;28;20455;-87
2022/03/15 05:11:09;;;;;;;9.27;6.15;;;;;;;6.46;74.37;102470.03;5053564;28;20065;-86
2022/03/15 05:13:43;;;;;;;10.88;6.60;;;;;;;6.49;74.11;102468.88;5052601;28;20079;-86
2022/03/15 05:16:11;;;;;;;8.50;5.65;;;;;;;6.46;74.43;102461.94;5052555;28;20417;-87
2022/03/15 05:18:40;;;;;;;8.98;5.85;;;;;;;6.47;74.74;102463.66;5036080;28;20055;-87
2022/03/15 05:21:06;;;;;;;7.82;5.50;;;;;;;6.48;74.45;102459.09;5036313;28;20037;-87
2022/03/15 05:23:32;;;;;;;7.97;5.60;;;;;;;6.46;74.75;102467.31;5035346;28;20492;-87
2022/03/15 05:26:01;;;;;;;10.05;6.07;;;;;;;6.46;74.50;102464.63;5052565;28;20024;-87
2022/03/15 05:28:27;;;;;;;7.32;5.97;;;;;;;6.41;74.71;102464.25;5053167;28;20037;-87
2022/03/15 05:30:53;;;;;;;8.98;6.18;;;;;;;6.42;75.06;102465.94;5052100;28;20029;-87
2022/03/15 05:33:22;;;;;;;9.75;6.03;;;;;;;6.41;74.67;102461.53;5035453;28;20029;-87
2022/03/15 05:35:47;;;;;;;8.13;5.72;;;;;;;6.41;74.74;102456.16;5052982;28;20025;-87
2022/03/15 05:38:13;;;;;;;6.85;5.70;;;;;;;6.42;74.89;102454.28;5051688;28;20036;-87
2022/03/15 05:40:38;;;;;;;7.90;6.03;;;;;;;6.42;74.80;102449.78;5035468;28;20024;-87
2022/03/15 05:43:04;;;;;;;8.80;6.03;;;;;;;6.41;74.74;102439.97;5035442;28;20033;-87
2022/03/15 05:45:29;;;;;;;12.77;6.43;;;;;;;6.43;74.61;102445.22;5035540;28;20041;-86
2022/03/15 05:47:55;;;;;;;10.25;6.05;;;;;;;6.44;74.93;102446.94;5051788;28;20106;-87
2022/03/15 05:50:22;;;;;;;10.55;5.78;;;;;;;6.45;74.58;102443.22;5053109;28;20035;-86
2022/03/15 05:52:47;;;;;;;7.88;5.65;;;;;;;6.44;74.69;102447.75;5051688;28;20035;-87
2022/03/15 05:55:13;;;;;;;8.50;5.63;;;;;;;6.41;74.81;102434.59;5003370;28;20128;-87
2022/03/15 05:57:39;;;;;;;6.32;4.93;;;;;;;6.41;75.00;102441.84;5019424;28;20039;-85
2022/03/15 06:00:08;;;;;;;6.63;4.93;;;;;;;6.40;74.83;102440.13;5054277;28;20465;-84
2022/03/15 06:02:33;;;;;;;6.38;5.25;;;;;;;6.40;75.19;102443.66;5056526;28;20111;-84
2022/03/15 06:04:59;;;;;;;7.60;5.30;;;;;;;6.41;75.41;102434.59;5038604;28;20123;-85
2022/03/15 06:07:27;;;;;;;10.27;6.07;;;;;;;6.44;75.40;102439.69;5055193;28;20024;-85
2022/03/15 06:09:53;;;;;;;8.25;6.30;;;;;;;6.45;75.15;102433.28;5038741;28;20033;-85
2022/03/15 06:12:27;;;;;;;8.10;6.13;;;;;;;6.47;75.38;102438.53;5056792;28;20036;-90
2022/03/15 06:14:55;;;;;;;7.15;5.30;;;;;;;6.45;75.40;102437.81;5024240;28;20032;-90
2022/03/15 06:17:23;;;;;;;8.57;6.20;;;;;;;6.48;75.33;102440.22;5038904;28;20575;-90
2022/03/15 06:19:48;;;;;;;9.73;6.00;;;;;;;6.47;75.48;102433.97;5022818;28;20062;-90
2022/03/15 06:22:14;;;;;;;7.88;6.22;;;;;;;6.50;75.38;102433.69;5055932;28;20036;-91
2022/03/15 06:24:39;;;;;;;8.13;6.22;;;;;;;6.55;74.98;102435.94;5054964;28;20491;-84
2022/03/15 06:27:04;;;;;;;10.65;6.55;;;;;;;6.57;75.41;102427.69;5039263;28;20032;-85
2022/03/15 06:29:30;;;;;;;9.13;6.22;;;;;;;6.57;75.02;102430.38;5056015;28;20079;-85
2022/03/15 06:31:56;;;;;;;8.48;5.85;;;;;;;6.61;74.83;102432.63;5039140;28;20184;-85
2022/03/15 06:34:22;;;;;;;8.85;6.38;;;;;;;6.63;74.36;102433.34;5022134;28;20075;-84
2022/03/15 06:36:47;;;;;;;10.55;6.60;;;;;;;6.65;74.61;102430.50;5038304;28;20127;-85
2022/03/15 06:39:13;;;;;;;9.30;6.40;;;;;;;6.67;74.78;102423.94;5054899;28;20378;-90
2022/03/15 06:41:39;;;;;;;8.65;6.45;;;;;;;6.66;74.72;102426.81;5039016;28;20072;-90
2022/03/15 06:44:08;;;;;;;7.40;6.10;;;;;;;6.65;74.95;102419.69;5056766;28;20078;-92
2022/03/15 06:46:42;;;;;;;9.57;6.20;;;;;;;6.68;74.46;102416.69;5039744;28;20454;-86
2022/03/15 06:49:08;;;;;;;8.98;6.82;;;;;;;6.72;74.14;102414.53;5039011;28;20087;-86
2022/03/15 06:51:40;;;;;;;10.82;6.50;;;;;;;6.74;74.28;102413.38;5054845;28;20124;-85
2022/03/15 06:54:05;;;;;;;9.32;6.85;;;;;;;6.77;73.93;102413.09;5054389;28;20071;-86
2022/03/15 06:56:34;;;;;;;10.27;7.28;;;;;;;6.83;73.43;102406.22;5022331;28;20041;-85
2022/03/15 06:58:59;;;;;;;7.82;6.22;;;;;;;6.83;73.78;102398.97;5037900;28;20477;-85
2022/03/15 07:01:27;;;;;;;9.93;6.55;;;;;;;6.90;74.14;102409.19;5037815;28;20121;-85
2022/03/15 07:03:53;;;;;;;7.15;5.97;;;;;;;6.92;73.43;102402.63;5055103;28;20087;-85
2022/03/15 07:06:18;;;;;;;9.38;6.10;;;;;;;6.96;73.24;102405.88;5055481;28;20513;-85
2022/03/15 07:08:44;;;;;;;11.75;7.13;;;;;;;7.01;72.79;102406.25;5037036;28;20032;-84
2022/03/15 07:11:09;;;;;;;9.40;6.47;;;;;;;7.06;72.98;102412.03;5020252;28;20079;-85
2022/03/15 07:13:35;;;;;;;8.57;6.70;;;;;;;7.09;72.91;102414.44;5037291;28;20115;-84
2022/03/15 07:16:00;;;;;;;10.63;6.68;;;;;;;7.17;72.24;102405.56;5037428;28;20055;-85
2022/03/15 07:18:26;;;;;;;8.45;5.90;;;;;;;7.18;72.37;102405.41;5036823;28;20040;-85
2022/03/15 07:20:51;;;;;;;9.43;6.20;;;;;;;7.23;72.20;102399.53;5036801;28;20039;-85
2022/03/15 07:23:17;;;;;;;9.20;6.07;;;;;;;7.28;71.74;102399.94;5036991;28;20029;-84
2022/03/15 07:25:42;;;;;;;8.98;5.93;;;;;;;7.33;71.49;102394.91;5055000;28;20574;-84
2022/03/15 07:28:08;;;;;;;8.10;5.75;;;;;;;7.38;71.13;102397.13;5054403;28;20086;-85
2022/03/15 07:30:34;;;;;;;9.70;5.72;;;;;;;7.41;71.22;102394.13;5037150;28;20389;-85
2022/03/15 07:32:59;;;;;;;7.82;5.40;;;;;;;7.45;71.34;102392.78;5004169;28;20029;-84
2022/03/15 07:35:27;;;;;;;7.10;4.90;;;;;;;7.51;70.93;102389.50;5021333;28;20057;-85
2022/03/15 07:37:55;;;;;;;8.30;5.15;;;;;;;7.56;70.60;102389.00;5037210;28;20033;-85
2022/03/15 07:40:22;;;;;;;8.45;5.30;;;;;;;7.59;70.25;102390.53;5036965;28;20461;-85
2022/03/15 07:42:49;;;;;;;7.82;5.18;;;;;;;7.60;70.66;102386.84;5054977;28;20100;-85
2022/03/15 07:45:15;;;;;;;8.30;5.40;;;;;;;7.65;70.17;102392.63;5052961;28;20029;-85
2022/03/15 07:47:41;;;;;;;7.05;5.03;;;;;;;7.67;70.03;102386.03;5054124;28;20055;-86
2022/03/15 07:50:07;;;;;;;7.22;5.63;;;;;;;7.70;70.14;102393.81;5054377;28;20047;-86
2022/03/15 07:52:32;;;;;;;8.55;5.32;;;;;;;7.75;69.97;102392.50;5020261;28;20033;-85
2022/03/15 07:55:01;;;;;;;7.53;5.50;;;;;;;7.78;69.74;102384.06;5052840;28;20072;-86
2022/03/15 07:57:26;;;;;;;10.57;6.30;;;;;;;7.85;69.50;102391.41;5052973;28;20099;-85
2022/03/15 07:59:52;;;;;;;8.82;5.50;;;;;;;7.85;69.31;102382.44;5036568;28;20029;-85
2022/03/15 08:02:17;;;;;;;7.65;5.13;;;;;;;7.92;68.93;102385.38;5036115;28;20056;-86
2022/03/15 08:04:43;;;;;;;8.40;5.25;;;;;;;7.96;69.03;102384.00;5020070;28;20123;-85
2022/03/15 08:07:09;;;;;;;6.93;4.85;;;;;;;8.01;68.83;102378.97;5036264;28;20535;-85
2022/03/15 08:09:35;;;;;;;7.00;4.75;;;;;;;8.07;69.03;102383.75;5053286;28;20531;-85
2022/03/15 08:12:01;;;;;;;8.02;5.07;;;;;;;8.08;68.62;102371.94;5036059;28;20056;-85
2022/03/15 08:14:26;;;;;;;7.95;4.88;;;;;;;8.15;67.98;102366.69;5054468;28;20040;-85
2022/03/15 08:16:52;;;;;;;7.97;5.07;;;;;;;8.18;67.91;102369.06;5036441;28;20036;-85
2022/03/15 08:19:17;;;;;;;9.07;5.30;;;;;;;8.22;67.82;102368.63;5052733;28;20496;-86
2022/03/15 08:21:43;;;;;;;8.43;5.45;;;;;;;8.26;67.87;102366.44;5019420;28;20036;-85
2022/03/15 08:24:13;;;;;;;9.80;5.43;;;;;;;8.33;67.60;102361.22;5053119;28;20119;-85
2022/03/15 08:26:47;;;;;;;8.90;5.00;;;;;;;8.37;67.24;102359.88;5054048;28;20031;-84
2022/03/15 08:29:13;;;;;;;6.55;4.55;;;;;;;8.45;67.12;102350.97;5021618;28;20354;-85
2022/03/15 08:31:38;;;;;;;8.65;4.85;;;;;;;8.51;66.91;102355.72;5052559;28;20032;-85
2022/03/15 08:34:04;;;;;;;8.82;4.53;;;;;;;8.58;66.75;102352.19;5052734;28;20465;-85
2022/03/15 08:36:29;;;;;;;8.85;4.70;;;;;;;8.66;66.21;102354.06;5052846;28;20040;-85
2022/03/15 08:38:55;;;;;;;7.03;4.60;;;;;;;8.72;66.11;102355.25;5053619;28;20477;-85
2022/03/15 08:41:20;;;;;;;5.47;4.00;;;;;;;8.81;66.21;102356.13;5052431;28;20106;-85
2022/03/15 08:43:48;;;;;;;7.78;4.20;;;;;;;8.85;66.01;102352.09;5036710;28;20075;-85
2022/03/15 08:46:14;;;;;;;6.60;4.57;;;;;;;8.93;65.74;102352.06;5052435;28;20032;-85
2022/03/15 08:48:39;;;;;;;7.10;4.25;;;;;;;8.99;65.18;102351.44;5048717;28;20405;-85
2022/03/15 08:51:05;;;;;;;6.53;4.20;;;;;;;9.07;65.33;102353.28;5033054;28;20041;-85
2022/03/15 08:53:34;;;;;;;6.75;3.90;;;;;;;9.11;65.12;102341.09;5032375;28;20092;-85
2022/03/15 08:56:01;;;;;;;6.43;3.80;;;;;;;9.17;64.66;102343.13;5048696;28;20044;-85
2022/03/15 08:58:26;;;;;;;6.10;4.05;;;;;;;9.22;64.32;102337.22;5032542;28;20034;-85
2022/03/15 09:00:54;;;;;;;6.15;3.78;;;;;;;9.27;64.16;102343.81;5049015;28;20386;-85
2022/03/15 09:03:20;;;;;;;6.53;3.75;;;;;;;9.35;63.92;102342.13;5032252;28;20524;-85
2022/03/15 09:05:45;;;;;;;6.07;3.40;;;;;;;9.41;63.62;102336.00;5032288;28;20116;-85
2022/03/15 09:08:11;;;;;;;5.22;3.17;;;;;;;9.50;63.72;102334.97;5032655;28;20033;-85
2022/03/15 09:10:39;;;;;;;5.18;3.47;;;;;;;9.56;63.50;102326.16;5016111;28;20069;-85
2022/03/15 09:13:07;;;;;;;5.82;3.60;;;;;;;9.65;63.40;102324.25;5033454;28;20032;-85
2022/03/15 09:15:35;;;;;;;5.97;3.55;;;;;;;9.74;62.74;102325.94;5033332;28;20040;-86
2022/03/15 09:18:02;;;;;;;6.45;3.70;;;;;;;9.82;62.55;102325.91;5048784;28;20030;-85
2022/03/15 09:20:28;;;;;;;5.78;3.42;;;;;;;9.91;62.71;102325.91;5033693;28;20056;-85
2022/03/15 09:22:53;;;;;;;5.10;3.60;;;;;;;9.95;62.45;102332.66;5048608;28;20397;-85
2022/03/15 09:25:19;;;;;;;6.05;3.83;;;;;;;10.02;61.84;102333.63;4999131;28;20052;-85
2022/03/15 09:27:46;;;;;;;6.93;4.10;;;;;;;10.08;61.80;102338.34;5048726;28;20033;-85
2022/03/15 09:30:15;;;;;;;5.05;3.30;;;;;;;10.17;62.28;102333.75;5031690;28;20037;-85
2022/03/15 09:32:40;;;;;;;4.53;3.35;;;;;;;10.24;60.90;102337.44;5031990;28;20033;-85
2022/03/15 09:35:06;;;;;;;7.15;3.20;;;;;;;10.36;60.96;102337.94;5034398;28;20125;-85
2022/03/15 09:37:32;;;;;;;4.47;3.08;;;;;;;10.41;60.16;102332.81;5052333;28;20440;-85
2022/03/15 09:39:58;;;;;;;5.53;3.30;;;;;;;10.45;60.11;102336.88;5052926;28;20125;-85
2022/03/15 09:42:25;;;;;;;4.43;2.80;;;;;;;10.53;59.80;102341.41;5020008;28;20542;-85
2022/03/15 09:44:57;;;;;;;6.05;3.35;;;;;;;10.56;59.41;102332.91;5053261;28;20044;-85
2022/03/15 09:47:34;;;;;;;4.47;3.00;;;;;;;10.65;60.00;102329.09;5053369;28;20037;-85
2022/03/15 09:50:04;;;;;;;5.55;2.88;;;;;;;10.76;59.28;102329.72;5039419;28;20045;-85
2022/03/15 09:52:30;;;;;;;4.07;2.97;;;;;;;10.84;58.72;102333.22;5055971;28;20136;-85
2022/03/15 09:54:56;;;;;;;5.38;2.90;;;;;;;10.95;58.58;102331.94;5023357;28;20107;-85
2022/03/15 09:57:22;;;;;;;4.88;2.80;;;;;;;11.06;58.17;102327.97;5039005;28;20063;-85
2022/03/15 09:59:50;;;;;;;5.78;3.05;;;;;;;11.18;58.16;102329.22;5039411;28;20458;-85
2022/03/15 10:02:16;;;;;;;5.93;3.00;;;;;;;11.30;57.66;102318.75;5056079;28;20124;-85
2022/03/15 10:04:42;;;;;;;4.88;2.85;;;;;;;11.43;57.40;102312.69;5056518;28;20048;-85
2022/03/15 10:07:08;;;;;;;4.03;2.90;;;;;;;11.57;57.61;102311.00;5038721;28;20041;-85
2022/03/15 10:09:36;;;;;;;3.85;2.80;;;;;;;11.69;56.49;102316.81;5055394;28;20029;-85
2022/03/15 10:12:02;;;;;;;4.45;2.90;;;;;;;11.81;56.55;102314.47;5056701;28;20083;-85
2022/03/15 10:14:28;;;;;;;4.10;2.78;;;;;;;11.94;56.15;102306.53;5038407;28;20064;-85
2022/03/15 10:17:01;;;;;;;6.03;3.03;;;;;;;12.11;56.46;102313.47;5056561;28;20114;-85
2022/03/15 10:19:33;;;;;;;5.63;3.10;;;;;;;12.27;56.04;102312.41;5055443;28;20037;-86
2022/03/15 10:21:58;;;;;;;4.82;3.13;;;;;;;12.41;54.94;102302.50;5038541;28;20358;-86
2022/03/15 10:24:29;;;;;;;5.63;3.35;;;;;;;12.55;54.95;102295.34;5038402;28;20033;-85
2022/03/15 10:26:59;;;;;;;5.13;3.40;;;;;;;12.69;54.20;102304.47;5054651;28;20032;-85
2022/03/15 10:29:28;;;;;;;4.93;3.10;;;;;;;12.82;53.39;102298.34;5055933;28;20033;-85
2022/03/15 10:31:57;;;;;;;4.40;3.00;;;;;;;12.92;53.96;102295.28;5054953;28;20033;-85
2022/03/15 10:34:27;;;;;;;5.75;2.97;;;;;;;12.97;53.20;102292.81;5056140;28;20061;-85
2022/03/15 10:36:56;;;;;;;4.03;2.95;;;;;;;13.06;54.20;102282.63;5038171;28;20021;-85
2022/03/15 10:39:22;;;;;;;5.50;2.83;;;;;;;13.13;52.70;102284.34;5054858;28;20131;-85
2022/03/15 10:41:53;;;;;;;5.20;3.25;;;;;;;13.27;53.26;102279.00;5054852;28;20040;-85
2022/03/15 10:44:23;;;;;;;4.25;3.10;;;;;;;13.40;52.72;102270.94;5056171;28;20110;-85
2022/03/15 10:47:10;;;;;;;4.25;2.75;;;;;;;13.49;52.94;102267.03;5055556;28;20029;-85
2022/03/15 10:49:54;;;;;;;6.00;3.10;;;;;;;13.58;53.15;102262.28;5055421;28;20061;-85
2022/03/15 10:52:39;;;;;;;3.45;2.50;;;;;;;13.64;53.01;102260.59;5053982;28;20140;-85
2022/03/15 10:55:16;;;;;;;3.72;2.50;;;;;;;13.59;51.70;102266.66;5054807;28;20033;-85
2022/03/15 10:57:56;;;;;;;6.68;3.20;;;;;;;13.44;53.16;102263.22;5055944;28;20029;-85
2022/03/15 11:00:24;;;;;;;3.90;2.70;;;;;;;13.44;51.74;102255.88;5054222;28;20067;-85
2022/03/15 11:02:51;;;;;;;6.18;3.03;;;;;;;13.40;51.55;102251.84;5054059;28;20040;-85
2022/03/15 11:05:37;;;;;;;3.72;2.75;;;;;;;13.22;52.34;102254.22;5021202;28;20040;-85
2022/03/15 11:08:11;;;;;;;4.20;2.80;;;;;;;13.09;52.85;102246.78;5055398;28;20055;-85
2022/03/15 11:10:38;;;;;;;4.70;3.03;;;;;;;13.15;52.29;102252.31;5054032;28;20480;-85
2022/03/15 11:13:17;;;;;;;2.88;2.47;;;;;;;13.16;52.21;102248.53;5055177;28;20099;-84
2022/03/15 11:15:53;;;;;;;4.95;3.20;;;;;;;13.05;52.84;102238.19;5054998;28;20132;-85
2022/03/15 11:18:19;;;;;;;5.03;3.00;;;;;;;12.79;52.99;102246.97;5038605;28;20056;-85
2022/03/15 11:20:47;;;;;;;3.90;2.72;;;;;;;12.79;53.33;102236.91;5037336;28;20037;-85
2022/03/15 11:23:15;;;;;;;4.50;2.70;;;;;;;12.93;53.36;102240.63;5037275;28;20037;-85
2022/03/15 11:25:48;;;;;;;5.13;2.63;;;;;;;13.05;53.13;102231.88;5054780;28;20473;-85
2022/03/15 11:28:17;;;;;;;4.25;2.72;;;;;;;13.09;53.21;102225.00;5037805;28;20029;-85